Weather at H 811 Helipad

Public forecast

Using degrees Celsius for public forecast. Weather courtesy of forecast.io.

Closest aviation weather report (METAR) to H 811 Helipad

Closest report is Daegu Airport, 9.6 nm (17.7 km) N. Retrieved 2020/10/20 05:00 UTC (1 hour ago):

RKTN 200500Z 14010KT 9999 FEW040 23/02 Q1024

Closest aviation forecast (TAF) to H 811 Helipad

Closest forecast is Daegu Airport, 9.6 nm (17.7 km) N. Retrieved 2020/10/20 06:00 UTC (12 minutes ago):

TAF RKTN 200500Z 2006/2112 13006KT 9999 FEW040 TN09/2021Z TX21/2106Z